Time,TemperatureF,DewpointF,PressureIn,WindDirection,WindDirectionDegrees,WindSpeedMPH,WindSpeedGustMPH,Humidity,HourlyPrecipIn,Conditions,Clouds,dailyrainin,SoftwareType,DateUTC
2013-05-29 00:01:00,79.3,75.4,29.01,SE,137,13.4,19.6,88,0.00,,FEW,0.00,WeatherDisplay:10.37,2013-05-29 05:01:00,
2013-05-29 00:06:00,79.4,75.5,29.02,East,90,10.8,18.4,88,0.00,,FEW,0.00,WeatherDisplay:10.37,2013-05-29 05:06:00,
2013-05-29 00:11:00,79.4,75.5,29.02,ESE,103,11.8,17.3,88,0.00,,FEW,0.00,WeatherDisplay:10.37,2013-05-29 05:11:00,
2013-05-29 00:16:00,79.5,76.0,29.02,SE,135,11.5,17.3,89,0.00,,FEW,0.00,WeatherDisplay:10.37,2013-05-29 05:16:00,
2013-05-29 00:21:00,79.4,75.5,29.02,South,173,7.6,12.7,88,0.00,,FEW,0.00,WeatherDisplay:10.37,2013-05-29 05:21:00,
2013-05-29 00:26:00,79.5,76.0,29.02,SE,145,12.4,16.8,89,0.00,,FEW,0.00,WeatherDisplay:10.37,2013-05-29 05:26:00,
2013-05-29 00:31:00,79.4,75.5,29.00,SSE,161,10.2,15.0,88,0.00,,FEW,0.00,WeatherDisplay:10.37,2013-05-29 05:31:00,
2013-05-29 00:36:00,79.4,75.5,29.02,ESE,111,12.5,16.1,88,0.00,,FEW,0.00,WeatherDisplay:10.37,2013-05-29 05:36:00,
2013-05-29 00:41:00,79.5,75.6,29.01,ENE,70,16.8,22.6,88,0.00,,FEW,0.00,WeatherDisplay:10.37,2013-05-29 05:41:00,
2013-05-29 00:46:00,79.5,75.6,29.01,ESE,109,12.7,18.4,88,0.00,,FEW,0.00,WeatherDisplay:10.37,2013-05-29 05:46:00,
2013-05-29 00:51:00,79.5,76.0,29.01,SSE,151,12.6,15.0,89,0.00,,FEW,0.00,WeatherDisplay:10.37,2013-05-29 05:51:00,
2013-05-29 00:56:00,79.5,76.0,29.01,ESE,107,10.6,12.7,89,0.00,,FEW,0.00,WeatherDisplay:10.37,2013-05-29 05:56:00,
2013-05-29 01:01:00,79.5,76.0,29.01,SSE,156,12.6,17.3,89,0.00,,FEW,0.00,WeatherDisplay:10.37,2013-05-29 06:01:00,
2013-05-29 01:06:00,79.5,76.0,29.00,SSE,156,9.7,12.7,89,0.00,,FEW,0.00,WeatherDisplay:10.37,2013-05-29 06:06:00,
2013-05-29 01:11:00,79.5,76.0,29.01,SE,141,13.2,17.3,89,0.00,,FEW,0.00,WeatherDisplay:10.37,2013-05-29 06:11:00,
2013-05-29 01:16:00,79.5,76.0,29.01,SSE,163,15.6,20.7,89,0.00,,FEW,0.00,WeatherDisplay:10.37,2013-05-29 06:16:00,
2013-05-29 01:21:00,79.5,76.0,29.00,SSE,147,11.0,17.3,89,0.00,,FEW,0.00,WeatherDisplay:10.37,2013-05-29 06:21:00,
2013-05-29 01:26:00,79.5,76.0,29.01,SSE,150,9.6,13.8,89,0.00,,FEW,0.00,WeatherDisplay:10.37,2013-05-29 06:26:00,
2013-05-29 01:31:00,79.5,76.3,29.01,South,170,10.2,19.6,90,0.00,,FEW,0.00,WeatherDisplay:10.37,2013-05-29 06:31:00,
2013-05-29 01:36:00,79.5,76.3,29.01,ESE,119,12.1,15.0,90,0.00,,FEW,0.00,WeatherDisplay:10.37,2013-05-29 06:36:00,
2013-05-29 01:41:00,79.5,76.3,29.01,South,170,7.9,8.1,90,0.00,,FEW,0.00,WeatherDisplay:10.37,2013-05-29 06:41:00,
2013-05-29 01:46:00,79.5,76.3,29.02,SSE,165,10.5,17.3,90,0.00,,FEW,0.00,WeatherDisplay:10.37,2013-05-29 06:46:00,
2013-05-29 01:51:00,79.5,76.3,29.02,SE,128,9.4,16.1,90,0.00,,FEW,0.00,WeatherDisplay:10.37,2013-05-29 06:51:00,
2013-05-29 01:56:00,79.5,76.0,29.02,SW,217,13.5,17.3,89,0.00,,FEW,0.00,WeatherDisplay:10.37,2013-05-29 06:56:00,
2013-05-29 02:01:00,79.5,76.0,29.02,SE,137,11.2,13.8,89,0.00,,FEW,0.00,WeatherDisplay:10.37,2013-05-29 07:01:00,
2013-05-29 02:06:00,79.5,76.3,29.02,SSE,154,15.6,23.0,90,0.00,,FEW,0.00,WeatherDisplay:10.37,2013-05-29 07:06:00,
2013-05-29 02:11:00,79.6,76.1,29.02,SE,140,9.0,12.7,89,0.00,,FEW,0.00,WeatherDisplay:10.37,2013-05-29 07:11:00,
2013-05-29 02:16:00,79.6,76.1,29.02,ESE,122,12.4,18.4,89,0.00,,FEW,0.00,WeatherDisplay:10.37,2013-05-29 07:16:00,
2013-05-29 02:21:00,79.6,76.1,29.02,SSE,160,7.7,11.6,89,0.00,,FEW,0.00,WeatherDisplay:10.37,2013-05-29 07:21:00,
2013-05-29 02:26:00,79.6,76.4,29.02,SE,129,7.9,15.8,90,0.00,,FEW,0.00,WeatherDisplay:10.37,2013-05-29 07:26:00,
2013-05-29 02:31:00,79.6,76.1,29.02,SE,141,15.0,17.3,89,0.00,,FEW,0.00,WeatherDisplay:10.37,2013-05-29 07:31:00,
2013-05-29 02:36:00,79.6,76.1,29.02,South,179,13.4,18.4,89,0.00,,FEW,0.00,WeatherDisplay:10.37,2013-05-29 07:36:00,
2013-05-29 02:41:00,79.7,76.5,29.03,East,95,9.0,10.4,90,0.00,,FEW,0.00,WeatherDisplay:10.37,2013-05-29 07:41:00,
2013-05-29 02:46:00,79.6,76.4,29.02,SSE,166,9.4,15.0,90,0.00,,FEW,0.00,WeatherDisplay:10.37,2013-05-29 07:46:00,
2013-05-29 02:51:00,79.6,76.4,29.02,SE,135,7.3,16.1,90,0.00,,FEW,0.00,WeatherDisplay:10.37,2013-05-29 07:51:00,
2013-05-29 02:56:00,79.5,76.3,29.02,SSW,193,6.8,10.5,90,0.00,,FEW,0.00,WeatherDisplay:10.37,2013-05-29 07:56:00,
2013-05-29 03:01:00,79.5,76.3,29.02,SSE,148,11.9,17.3,90,0.00,,FEW,0.00,WeatherDisplay:10.37,2013-05-29 08:01:00,
2013-05-29 03:06:00,79.5,76.3,29.02,SE,133,9.7,10.4,90,0.00,,FEW,0.00,WeatherDisplay:10.37,2013-05-29 08:06:00,
2013-05-29 03:11:00,79.5,76.3,29.02,SE,132,12.5,17.3,90,0.00,,FEW,0.00,WeatherDisplay:10.37,2013-05-29 08:11:00,
2013-05-29 03:16:00,79.5,76.3,29.02,SSE,160,11.0,15.0,90,0.00,,FEW,0.00,WeatherDisplay:10.37,2013-05-29 08:16:00,
2013-05-29 03:21:00,79.5,76.3,29.02,SE,138,6.6,11.5,90,0.00,,FEW,0.00,WeatherDisplay:10.37,2013-05-29 08:21:00,
2013-05-29 03:26:00,79.5,76.3,29.02,SSE,162,4.6,5.8,90,0.00,,FEW,0.00,WeatherDisplay:10.37,2013-05-29 08:26:00,
2013-05-29 03:31:00,79.5,76.3,29.03,SE,142,7.7,10.4,90,0.00,,FEW,0.00,WeatherDisplay:10.37,2013-05-29 08:31:00,
2013-05-29 03:36:00,79.5,76.3,29.02,SSE,154,6.5,6.9,90,0.00,,FEW,0.00,WeatherDisplay:10.37,2013-05-29 08:36:00,
2013-05-29 03:41:00,79.5,76.3,29.02,SE,135,6.6,9.2,90,0.00,,FEW,0.00,WeatherDisplay:10.37,2013-05-29 08:41:00,
2013-05-29 03:46:00,79.5,76.3,29.03,SE,141,5.6,8.1,90,0.00,,FEW,0.00,WeatherDisplay:10.37,2013-05-29 08:46:00,
2013-05-29 03:51:00,79.4,76.2,29.03,ESE,109,8.4,11.5,90,0.00,,FEW,0.00,WeatherDisplay:10.37,2013-05-29 08:51:00,
2013-05-29 03:56:00,79.5,76.3,29.03,SW,222,4.8,5.8,90,0.00,,FEW,0.00,WeatherDisplay:10.37,2013-05-29 08:56:00,
2013-05-29 04:01:00,79.4,76.2,29.03,SSE,163,9.3,10.4,90,0.00,,FEW,0.00,WeatherDisplay:10.37,2013-05-29 09:01:00,
2013-05-29 04:06:00,79.5,76.3,29.03,South,180,7.4,9.4,90,0.00,,FEW,0.00,WeatherDisplay:10.37,2013-05-29 09:06:00,
2013-05-29 04:11:00,79.5,76.3,29.03,SSE,158,5.1,8.4,90,0.00,,FEW,0.00,WeatherDisplay:10.37,2013-05-29 09:11:00,
2013-05-29 04:16:00,79.5,76.3,29.02,SSE,158,8.8,11.5,90,0.00,,FEW,0.00,WeatherDisplay:10.37,2013-05-29 09:16:00,
2013-05-29 04:21:00,79.5,76.6,29.02,SE,145,4.5,9.2,91,0.00,,FEW,0.00,WeatherDisplay:10.37,2013-05-29 09:21:00,
2013-05-29 04:26:00,79.4,76.5,29.01,SE,126,5.6,9.2,91,0.00,,FEW,0.00,WeatherDisplay:10.37,2013-05-29 09:26:00,
2013-05-29 04:31:00,79.4,76.5,29.01,SE,146,7.4,10.4,91,0.00,,FEW,0.00,WeatherDisplay:10.37,2013-05-29 09:31:00,
2013-05-29 04:36:00,79.4,76.5,29.01,ESE,105,6.6,12.7,91,0.00,,FEW,0.00,WeatherDisplay:10.37,2013-05-29 09:36:00,
2013-05-29 04:41:00,79.3,76.4,29.01,SSE,150,10.0,15.0,91,0.00,,FEW,0.00,WeatherDisplay:10.37,2013-05-29 09:41:00,
2013-05-29 04:46:00,79.4,76.5,29.01,South,172,7.1,8.1,91,0.00,,FEW,0.00,WeatherDisplay:10.37,2013-05-29 09:46:00,
2013-05-29 04:51:00,79.4,76.5,29.02,South,173,7.3,9.2,91,0.00,,FEW,0.00,WeatherDisplay:10.37,2013-05-29 09:51:00,
2013-05-29 04:56:00,79.4,76.5,29.01,ESE,103,5.4,6.9,91,0.00,,FEW,0.00,WeatherDisplay:10.37,2013-05-29 09:56:00,
2013-05-29 05:01:00,79.4,76.5,29.01,SE,126,4.2,6.9,91,0.00,,FEW,0.00,WeatherDisplay:10.37,2013-05-29 10:01:00,
2013-05-29 05:06:00,79.4,76.5,29.01,SE,142,8.7,15.0,91,0.00,,FEW,0.00,WeatherDisplay:10.37,2013-05-29 10:06:00,
2013-05-29 05:11:00,79.4,76.5,29.01,South,187,3.1,6.9,91,0.00,,FEW,0.00,WeatherDisplay:10.37,2013-05-29 10:11:00,
2013-05-29 05:16:00,79.3,76.4,29.01,SSE,148,7.0,11.5,91,0.00,,FEW,0.00,WeatherDisplay:10.37,2013-05-29 10:16:00,
2013-05-29 05:21:00,79.3,76.4,29.01,East,95,5.4,13.8,91,0.00,,FEW,0.00,WeatherDisplay:10.37,2013-05-29 10:21:00,
2013-05-29 05:26:00,79.3,76.4,29.02,SE,143,4.8,9.2,91,0.00,,FEW,0.00,WeatherDisplay:10.37,2013-05-29 10:26:00,
2013-05-29 05:31:00,79.3,76.4,29.02,SSE,161,7.2,11.5,91,0.00,,FEW,0.00,WeatherDisplay:10.37,2013-05-29 10:31:00,
2013-05-29 05:36:00,79.3,76.4,29.01,SE,144,6.9,7.4,91,0.00,,FEW,0.00,WeatherDisplay:10.37,2013-05-29 10:36:00,
2013-05-29 05:41:00,79.4,76.5,29.01,SSE,156,7.4,12.6,91,0.00,,FEW,0.00,WeatherDisplay:10.37,2013-05-29 10:41:00,
2013-05-29 05:46:00,79.4,76.5,29.02,SE,137,9.5,11.6,91,0.00,,FEW,0.00,WeatherDisplay:10.37,2013-05-29 10:46:00,
2013-05-29 05:51:00,79.3,76.4,29.02,SSE,153,4.4,10.5,91,0.00,,FEW,0.00,WeatherDisplay:10.37,2013-05-29 10:51:00,
2013-05-29 05:56:00,79.3,76.4,29.02,SE,125,4.0,8.1,91,0.00,,FEW,0.00,WeatherDisplay:10.37,2013-05-29 10:56:00,
2013-05-29 06:01:00,79.3,76.4,29.02,SE,143,4.3,5.8,91,0.00,,FEW,0.00,WeatherDisplay:10.37,2013-05-29 11:01:00,
2013-05-29 06:06:00,79.2,76.3,29.02,SE,127,5.0,6.9,91,0.00,,FEW,0.00,WeatherDisplay:10.37,2013-05-29 11:06:00,
2013-05-29 06:11:00,79.3,76.4,29.02,SSE,152,7.5,10.4,91,0.00,,FEW,0.00,WeatherDisplay:10.37,2013-05-29 11:11:00,
2013-05-29 06:16:00,79.3,76.4,29.02,SE,137,5.5,6.9,91,0.00,,FEW,0.00,WeatherDisplay:10.37,2013-05-29 11:16:00,
2013-05-29 06:21:00,79.3,76.4,29.03,SE,135,1.9,4.6,91,0.00,,FEW,0.00,WeatherDisplay:10.37,2013-05-29 11:21:00,
2013-05-29 06:26:00,79.4,76.5,29.03,SE,124,2.2,5.8,91,0.00,,FEW,0.00,WeatherDisplay:10.37,2013-05-29 11:26:00,
2013-05-29 06:31:00,79.3,76.4,29.03,South,186,4.3,5.8,91,0.00,,FEW,0.00,WeatherDisplay:10.37,2013-05-29 11:31:00,
2013-05-29 06:36:00,79.3,76.4,29.03,SE,135,4.7,5.8,91,0.00,,FEW,0.00,WeatherDisplay:10.37,2013-05-29 11:36:00,
2013-05-29 06:41:00,79.3,76.4,29.03,SE,141,2.5,5.8,91,0.00,,FEW,0.00,WeatherDisplay:10.37,2013-05-29 11:41:00,
2013-05-29 06:46:00,79.3,76.4,29.03,SE,143,9.7,12.7,91,0.00,,FEW,0.00,WeatherDisplay:10.37,2013-05-29 11:46:00,
2013-05-29 06:51:00,79.3,76.1,29.03,SSE,160,4.9,7.4,90,0.00,,FEW,0.00,WeatherDisplay:10.37,2013-05-29 11:51:00,
2013-05-29 06:56:00,79.4,76.2,29.03,SSE,162,5.0,6.9,90,0.00,,FEW,0.00,WeatherDisplay:10.37,2013-05-29 11:56:00,
2013-05-29 07:01:00,79.5,76.3,29.03,SE,135,7.2,11.5,90,0.00,,FEW,0.00,WeatherDisplay:10.37,2013-05-29 12:01:00,
2013-05-29 07:06:00,79.4,76.2,29.03,South,170,6.1,10.4,90,0.00,,FEW,0.00,WeatherDisplay:10.37,2013-05-29 12:06:00,
2013-05-29 07:11:00,79.4,76.2,29.02,SE,132,6.1,11.6,90,0.00,,FEW,0.00,WeatherDisplay:10.37,2013-05-29 12:11:00,
2013-05-29 07:16:00,79.3,76.1,29.02,SSE,162,9.1,13.8,90,0.00,,FEW,0.00,WeatherDisplay:10.37,2013-05-29 12:16:00,
2013-05-29 07:21:00,79.4,76.2,29.02,SE,143,5.7,9.4,90,0.00,,FEW,0.00,WeatherDisplay:10.37,2013-05-29 12:21:00,
2013-05-29 07:26:00,79.4,76.2,29.02,SE,136,10.8,17.3,90,0.00,,FEW,0.00,WeatherDisplay:10.37,2013-05-29 12:26:00,
2013-05-29 07:31:00,79.5,76.3,29.02,ESE,121,4.4,4.6,90,0.00,,FEW,0.00,WeatherDisplay:10.37,2013-05-29 12:31:00,
2013-05-29 07:36:00,79.5,76.3,29.02,SSE,164,10.1,10.4,90,0.00,,FEW,0.00,WeatherDisplay:10.37,2013-05-29 12:36:00,
2013-05-29 07:41:00,79.6,76.4,29.02,SW,227,9.3,12.7,90,0.00,,FEW,0.00,WeatherDisplay:10.37,2013-05-29 12:41:00,
2013-05-29 07:46:00,79.7,76.5,29.02,SSE,148,5.9,9.2,90,0.00,,FEW,0.00,WeatherDisplay:10.37,2013-05-29 12:46:00,
2013-05-29 07:51:00,79.8,76.6,29.02,South,173,7.9,10.4,90,0.00,,FEW,0.00,WeatherDisplay:10.37,2013-05-29 12:51:00,
2013-05-29 07:56:00,79.9,76.7,29.02,SSW,201,7.4,10.4,90,0.00,,FEW,0.00,WeatherDisplay:10.37,2013-05-29 12:56:00,
2013-05-29 08:01:00,80.0,76.8,29.03,South,179,5.9,10.4,90,0.00,,FEW,0.00,WeatherDisplay:10.37,2013-05-29 13:01:00,
2013-05-29 08:06:00,80.4,77.2,29.03,SE,128,8.0,9.2,90,0.00,,FEW,0.00,WeatherDisplay:10.37,2013-05-29 13:06:00,
2013-05-29 08:11:00,80.8,77.3,29.03,SSE,148,1.0,5.8,89,0.00,,FEW,0.00,WeatherDisplay:10.37,2013-05-29 13:11:00,
2013-05-29 08:16:00,81.3,77.4,29.03,ESE,115,9.7,10.5,88,0.00,,FEW,0.00,WeatherDisplay:10.37,2013-05-29 13:16:00,
2013-05-29 08:21:00,81.6,77.4,29.04,SW,231,6.6,9.4,87,0.00,,FEW,0.00,WeatherDisplay:10.37,2013-05-29 13:21:00,
2013-05-29 08:26:00,81.7,77.5,29.04,SSE,149,8.7,11.5,87,0.00,,FEW,0.00,WeatherDisplay:10.37,2013-05-29 13:26:00,
2013-05-29 08:31:00,81.9,77.6,29.04,SSE,150,5.0,11.5,87,0.00,,FEW,0.00,WeatherDisplay:10.37,2013-05-29 13:31:00,
2013-05-29 08:36:00,81.9,77.6,29.04,South,171,9.2,10.4,87,0.00,,FEW,0.00,WeatherDisplay:10.37,2013-05-29 13:36:00,
2013-05-29 08:41:00,81.9,77.6,29.03,SSE,148,4.5,8.1,87,0.00,,FEW,0.00,WeatherDisplay:10.37,2013-05-29 13:41:00,
2013-05-29 08:46:00,81.7,77.5,29.03,SE,133,9.7,11.5,87,0.00,,FEW,0.00,WeatherDisplay:10.37,2013-05-29 13:46:00,
2013-05-29 08:51:00,81.4,77.2,29.03,SSE,147,6.7,10.4,87,0.00,,FEW,0.00,WeatherDisplay:10.37,2013-05-29 13:51:00,
2013-05-29 08:56:00,81.2,77.0,29.03,ESE,106,9.2,16.1,87,0.00,,FEW,0.00,WeatherDisplay:10.37,2013-05-29 13:56:00,
2013-05-29 09:01:00,81.1,77.2,29.04,SE,128,4.9,11.5,88,0.00,,FEW,0.00,WeatherDisplay:10.37,2013-05-29 14:01:00,
2013-05-29 09:06:00,81.2,77.0,29.04,SSE,154,10.6,11.5,87,0.00,,FEW,0.00,WeatherDisplay:10.37,2013-05-29 14:06:00,
2013-05-29 09:11:00,81.3,77.1,29.04,SE,136,10.2,13.8,87,0.00,,FEW,0.00,WeatherDisplay:10.37,2013-05-29 14:11:00,
2013-05-29 09:16:00,81.4,77.2,29.04,SSE,147,6.3,12.7,87,0.00,,FEW,0.00,WeatherDisplay:10.37,2013-05-29 14:16:00,
2013-05-29 09:21:00,81.7,77.5,29.05,South,175,6.1,11.6,87,0.00,,FEW,0.00,WeatherDisplay:10.37,2013-05-29 14:21:00,
2013-05-29 09:26:00,81.7,77.1,29.05,SSW,201,7.1,13.8,86,0.00,,FEW,0.00,WeatherDisplay:10.37,2013-05-29 14:26:00,
2013-05-29 09:31:00,81.8,77.2,29.04,SSW,207,9.7,12.7,86,0.00,,FEW,0.00,WeatherDisplay:10.37,2013-05-29 14:31:00,
2013-05-29 09:36:00,81.9,77.3,29.04,SSE,151,7.9,12.7,86,0.00,,FEW,0.00,WeatherDisplay:10.37,2013-05-29 14:36:00,
2013-05-29 09:41:00,81.8,77.2,29.04,ESE,120,10.3,15.0,86,0.00,,FEW,0.00,WeatherDisplay:10.37,2013-05-29 14:41:00,
2013-05-29 09:46:00,81.8,77.2,29.04,ESE,115,8.5,15.0,86,0.00,,FEW,0.00,WeatherDisplay:10.37,2013-05-29 14:46:00,
2013-05-29 09:51:00,81.7,77.1,29.04,SSE,156,12.2,18.4,86,0.00,,FEW,0.00,WeatherDisplay:10.37,2013-05-29 14:51:00,
2013-05-29 09:56:00,81.5,76.9,29.03,SSE,156,10.5,15.0,86,0.00,,FEW,0.00,WeatherDisplay:10.37,2013-05-29 14:56:00,
2013-05-29 10:01:00,81.4,77.2,29.03,SSE,162,13.8,15.0,87,0.00,,FEW,0.00,WeatherDisplay:10.37,2013-05-29 15:01:00,
2013-05-29 10:06:00,81.4,77.2,29.03,ESE,114,6.0,9.2,87,0.00,,FEW,0.00,WeatherDisplay:10.37,2013-05-29 15:06:00,
2013-05-29 10:11:00,81.5,77.3,29.03,South,186,9.6,11.5,87,0.00,,FEW,0.00,WeatherDisplay:10.37,2013-05-29 15:11:00,
2013-05-29 10:16:00,81.3,77.1,29.03,SSE,156,9.4,12.7,87,0.00,,FEW,0.00,WeatherDisplay:10.37,2013-05-29 15:16:00,
2013-05-29 10:21:00,81.3,77.1,29.02,SE,135,9.7,13.8,87,0.00,,FEW,0.00,WeatherDisplay:10.37,2013-05-29 15:21:00,
2013-05-29 10:26:00,81.4,77.2,29.02,SSE,151,10.2,13.8,87,0.00,,FEW,0.00,WeatherDisplay:10.37,2013-05-29 15:26:00,
2013-05-29 10:31:00,81.3,77.4,29.02,South,169,11.3,18.4,88,0.00,,FEW,0.00,WeatherDisplay:10.37,2013-05-29 15:31:00,
2013-05-29 10:36:00,81.2,77.3,29.02,South,169,9.7,12.7,88,0.00,,FEW,0.00,WeatherDisplay:10.37,2013-05-29 15:36:00,
2013-05-29 10:41:00,81.1,77.2,29.01,ESE,120,10.3,12.7,88,0.00,,FEW,0.00,WeatherDisplay:10.37,2013-05-29 15:41:00,
2013-05-29 10:46:00,81.1,77.2,29.02,South,177,12.3,15.0,88,0.00,,FEW,0.00,WeatherDisplay:10.37,2013-05-29 15:46:00,
2013-05-29 10:51:00,81.1,77.2,29.02,SSE,150,9.9,15.0,88,0.00,,FEW,0.00,WeatherDisplay:10.37,2013-05-29 15:51:00,
2013-05-29 10:56:00,81.1,77.2,29.02,SSE,150,13.3,24.2,88,0.00,,FEW,0.00,WeatherDisplay:10.37,2013-05-29 15:56:00,
2013-05-29 11:01:00,81.0,77.1,29.02,ESE,109,10.8,18.4,88,0.00,,FEW,0.00,WeatherDisplay:10.37,2013-05-29 16:01:00,
2013-05-29 11:06:00,81.1,77.2,29.02,SSE,156,12.6,18.4,88,0.00,,FEW,0.00,WeatherDisplay:10.37,2013-05-29 16:06:00,
2013-05-29 11:11:00,81.0,76.8,29.01,SE,135,15.7,20.7,87,0.00,,FEW,0.00,WeatherDisplay:10.37,2013-05-29 16:11:00,
2013-05-29 11:16:00,81.0,77.1,29.01,SE,132,14.8,18.4,88,0.00,,FEW,0.00,WeatherDisplay:10.37,2013-05-29 16:16:00,
2013-05-29 11:21:00,81.1,77.2,29.01,South,171,15.1,20.0,88,0.00,,FEW,0.00,WeatherDisplay:10.37,2013-05-29 16:21:00,
2013-05-29 11:26:00,81.2,77.0,29.01,SE,133,11.3,23.0,87,0.00,,FEW,0.00,WeatherDisplay:10.37,2013-05-29 16:26:00,
2013-05-29 11:31:00,81.5,77.3,29.01,SE,128,13.8,18.4,87,0.00,,FEW,0.00,WeatherDisplay:10.37,2013-05-29 16:31:00,
2013-05-29 11:36:00,81.7,77.5,29.01,SSE,148,8.0,17.9,87,0.00,,FEW,0.00,WeatherDisplay:10.37,2013-05-29 16:36:00,
2013-05-29 11:41:00,81.8,77.2,29.01,ESE,120,14.4,18.4,86,0.00,,FEW,0.00,WeatherDisplay:10.37,2013-05-29 16:41:00,
2013-05-29 11:46:00,82.1,77.5,29.00,SE,130,11.8,13.7,86,0.00,,FEW,0.00,WeatherDisplay:10.37,2013-05-29 16:46:00,
2013-05-29 11:51:00,82.1,77.5,29.00,South,170,11.9,18.4,86,0.00,,FEW,0.00,WeatherDisplay:10.37,2013-05-29 16:51:00,
2013-05-29 11:56:00,82.1,77.5,29.00,SE,139,8.1,11.5,86,0.00,,FEW,0.00,WeatherDisplay:10.37,2013-05-29 16:56:00,
2013-05-29 12:01:00,81.9,77.3,29.01,South,180,10.2,20.7,86,0.00,,FEW,0.00,WeatherDisplay:10.37,2013-05-29 17:01:00,
2013-05-29 12:06:00,82.1,77.5,29.01,ESE,105,4.4,15.0,86,0.00,,FEW,0.00,WeatherDisplay:10.37,2013-05-29 17:06:00,
2013-05-29 12:11:00,82.4,77.4,29.01,SE,137,9.7,15.0,85,0.00,,FEW,0.00,WeatherDisplay:10.37,2013-05-29 17:11:00,
2013-05-29 12:16:00,82.3,77.3,29.01,SSE,151,11.2,17.3,85,0.00,,FEW,0.00,WeatherDisplay:10.37,2013-05-29 17:16:00,
2013-05-29 12:21:00,82.3,77.7,29.00,SE,132,7.2,11.6,86,0.00,,FEW,0.00,WeatherDisplay:10.37,2013-05-29 17:21:00,
2013-05-29 12:26:00,82.5,77.5,29.00,SE,130,8.5,13.8,85,0.00,,FEW,0.00,WeatherDisplay:10.37,2013-05-29 17:26:00,
2013-05-29 12:31:00,82.4,77.4,29.00,SE,145,13.7,17.3,85,0.00,,FEW,0.00,WeatherDisplay:10.37,2013-05-29 17:31:00,
2013-05-29 12:36:00,82.2,77.2,29.00,SSE,147,16.0,21.9,85,0.00,,FEW,0.00,WeatherDisplay:10.37,2013-05-29 17:36:00,
2013-05-29 12:41:00,82.3,77.3,29.00,South,185,12.8,16.1,85,0.00,,FEW,0.00,WeatherDisplay:10.37,2013-05-29 17:41:00,
2013-05-29 12:46:00,82.0,77.0,29.00,SE,130,12.6,19.6,85,0.00,,FEW,0.00,WeatherDisplay:10.37,2013-05-29 17:46:00,
2013-05-29 12:51:00,82.0,77.4,29.00,ESE,118,10.0,13.8,86,0.00,,FEW,0.00,WeatherDisplay:10.37,2013-05-29 17:51:00,
2013-05-29 12:56:00,81.9,77.6,29.00,South,180,9.3,15.0,87,0.00,,FEW,0.00,WeatherDisplay:10.37,2013-05-29 17:56:00,
2013-05-29 13:01:00,81.7,77.1,29.00,SSE,162,14.8,18.4,86,0.00,,FEW,0.00,WeatherDisplay:10.37,2013-05-29 18:01:00,
2013-05-29 13:06:00,81.6,77.4,29.00,East,99,9.9,15.0,87,0.00,,FEW,0.00,WeatherDisplay:10.37,2013-05-29 18:06:00,
2013-05-29 13:11:00,81.6,77.4,29.01,ESE,106,14.4,18.4,87,0.00,,FEW,0.00,WeatherDisplay:10.37,2013-05-29 18:11:00,
2013-05-29 13:16:00,81.7,77.5,29.00,SE,141,8.7,15.0,87,0.00,,FEW,0.00,WeatherDisplay:10.37,2013-05-29 18:16:00,
2013-05-29 13:21:00,81.7,77.5,29.00,ESE,102,9.0,26.5,87,0.00,,FEW,0.00,WeatherDisplay:10.37,2013-05-29 18:21:00,
2013-05-29 13:26:00,81.8,77.2,29.00,SSE,150,12.9,16.1,86,0.00,,FEW,0.00,WeatherDisplay:10.37,2013-05-29 18:26:00,
2013-05-29 13:31:00,81.8,77.2,29.00,SE,142,12.1,18.4,86,0.00,,FEW,0.00,WeatherDisplay:10.37,2013-05-29 18:31:00,
2013-05-29 13:36:00,81.7,77.5,29.00,SE,130,11.4,18.4,87,0.00,,FEW,0.00,WeatherDisplay:10.37,2013-05-29 18:36:00,
2013-05-29 13:41:00,81.8,77.5,29.00,SSE,162,12.2,17.3,87,0.00,,FEW,0.00,WeatherDisplay:10.37,2013-05-29 18:41:00,
2013-05-29 13:46:00,81.7,77.1,29.00,SE,126,11.7,19.6,86,0.00,,FEW,0.00,WeatherDisplay:10.37,2013-05-29 18:46:00,
2013-05-29 13:51:00,81.6,77.0,28.99,East,92,15.1,19.6,86,0.00,,FEW,0.00,WeatherDisplay:10.37,2013-05-29 18:51:00,
2013-05-29 13:56:00,81.5,77.3,28.98,SSE,149,16.1,21.0,87,0.00,,FEW,0.00,WeatherDisplay:10.37,2013-05-29 18:56:00,
2013-05-29 14:01:00,81.3,77.1,28.97,SSE,161,10.5,19.6,87,0.00,,FEW,0.00,WeatherDisplay:10.37,2013-05-29 19:01:00,
2013-05-29 14:06:00,81.4,77.5,28.96,ESE,102,13.1,19.6,88,0.00,,FEW,0.00,WeatherDisplay:10.37,2013-05-29 19:06:00,
2013-05-29 14:11:00,81.4,77.2,28.96,SSE,152,13.3,21.9,87,0.00,,FEW,0.00,WeatherDisplay:10.37,2013-05-29 19:11:00,
2013-05-29 14:16:00,81.4,77.2,28.96,SE,133,14.3,20.7,87,0.00,,FEW,0.00,WeatherDisplay:10.37,2013-05-29 19:16:00,
2013-05-29 14:21:00,81.3,77.1,28.96,ESE,116,16.5,25.3,87,0.00,,FEW,0.00,WeatherDisplay:10.37,2013-05-29 19:21:00,
2013-05-29 14:26:00,81.3,77.4,28.95,South,172,13.8,18.4,88,0.00,,FEW,0.00,WeatherDisplay:10.37,2013-05-29 19:26:00,
2013-05-29 14:31:00,81.4,77.5,28.95,SE,143,12.1,18.4,88,0.00,,FEW,0.00,WeatherDisplay:10.37,2013-05-29 19:31:00,
2013-05-29 14:36:00,81.3,77.4,28.95,ESE,114,11.7,19.6,88,0.00,,FEW,0.00,WeatherDisplay:10.37,2013-05-29 19:36:00,
2013-05-29 14:41:00,81.3,77.4,28.95,SE,140,13.5,21.0,88,0.00,,FEW,0.00,WeatherDisplay:10.37,2013-05-29 19:41:00,
2013-05-29 14:46:00,81.4,77.5,28.95,SE,144,14.7,22.1,88,0.00,,FEW,0.00,WeatherDisplay:10.37,2013-05-29 19:46:00,
2013-05-29 14:51:00,81.5,77.6,28.95,ESE,116,11.0,17.9,88,0.00,,FEW,0.00,WeatherDisplay:10.37,2013-05-29 19:51:00,
2013-05-29 14:56:00,81.8,77.9,28.98,SSE,164,8.0,13.7,88,0.00,,FEW,0.00,WeatherDisplay:10.37,2013-05-29 19:56:00,
2013-05-29 15:01:00,82.0,77.7,28.99,South,177,11.1,20.7,87,0.00,,FEW,0.00,WeatherDisplay:10.37,2013-05-29 20:01:00,
2013-05-29 15:06:00,82.2,77.9,28.98,SSE,148,11.5,13.8,87,0.00,,FEW,0.00,WeatherDisplay:10.37,2013-05-29 20:06:00,
2013-05-29 15:11:00,82.4,78.1,28.98,SE,135,10.5,17.3,87,0.00,,FEW,0.00,WeatherDisplay:10.37,2013-05-29 20:11:00,
2013-05-29 15:16:00,82.6,78.0,28.97,ESE,109,16.2,21.9,86,0.00,,FEW,0.00,WeatherDisplay:10.37,2013-05-29 20:16:00,
2013-05-29 15:21:00,82.7,78.1,28.97,SSE,149,15.7,24.2,86,0.00,,FEW,0.00,WeatherDisplay:10.37,2013-05-29 20:21:00,
2013-05-29 15:26:00,83.0,78.0,28.97,SSE,149,18.3,19.6,85,0.00,,FEW,0.00,WeatherDisplay:10.37,2013-05-29 20:26:00,
2013-05-29 15:31:00,82.6,77.6,28.97,ESE,106,16.0,24.2,85,0.00,,FEW,0.00,WeatherDisplay:10.37,2013-05-29 20:31:00,
2013-05-29 15:36:00,82.3,77.7,28.96,SSE,161,14.9,23.0,86,0.00,,FEW,0.00,WeatherDisplay:10.37,2013-05-29 20:36:00,
2013-05-29 15:41:00,82.3,78.0,28.96,SE,132,12.7,18.4,87,0.00,,FEW,0.00,WeatherDisplay:10.37,2013-05-29 20:41:00,
2013-05-29 15:46:00,82.5,77.9,28.96,NE,53,32.2,32.2,86,0.00,,FEW,0.00,WeatherDisplay:10.37,2013-05-29 20:46:00,
2013-05-29 15:51:00,82.7,78.1,28.96,SSW,194,10.5,15.0,86,0.00,,FEW,0.00,WeatherDisplay:10.37,2013-05-29 20:51:00,
2013-05-29 15:56:00,82.8,77.8,28.96,ESE,119,8.9,17.3,85,0.00,,FEW,0.00,WeatherDisplay:10.37,2013-05-29 20:56:00,
2013-05-29 16:01:00,82.6,77.6,28.96,ESE,118,12.4,24.2,85,0.00,,FEW,0.00,WeatherDisplay:10.37,2013-05-29 21:01:00,
2013-05-29 16:06:00,82.6,77.6,28.95,SSE,147,11.8,17.9,85,0.00,,FEW,0.00,WeatherDisplay:10.37,2013-05-29 21:06:00,
2013-05-29 16:11:00,82.5,77.5,28.95,SE,125,16.4,20.7,85,0.00,,FEW,0.00,WeatherDisplay:10.37,2013-05-29 21:11:00,
2013-05-29 16:16:00,82.1,77.5,28.95,ENE,78,7.5,15.0,86,0.00,,FEW,0.00,WeatherDisplay:10.37,2013-05-29 21:16:00,
2013-05-29 16:21:00,81.9,77.3,28.95,South,184,15.6,18.4,86,0.00,,FEW,0.00,WeatherDisplay:10.37,2013-05-29 21:21:00,
2013-05-29 16:26:00,82.0,77.4,28.95,SE,135,13.8,20.7,86,0.00,,FEW,0.00,WeatherDisplay:10.37,2013-05-29 21:26:00,
2013-05-29 16:31:00,82.1,77.5,28.94,SE,134,14.2,18.4,86,0.00,,FEW,0.00,WeatherDisplay:10.37,2013-05-29 21:31:00,
2013-05-29 16:36:00,82.2,77.6,28.94,SE,139,14.7,26.5,86,0.00,,FEW,0.00,WeatherDisplay:10.37,2013-05-29 21:36:00,
2013-05-29 16:41:00,82.1,77.5,28.94,South,189,17.0,24.2,86,0.00,,FEW,0.00,WeatherDisplay:10.37,2013-05-29 21:41:00,
2013-05-29 16:46:00,82.0,77.4,28.94,SSE,165,17.4,25.3,86,0.00,,FEW,0.00,WeatherDisplay:10.37,2013-05-29 21:46:00,
2013-05-29 16:51:00,82.2,77.6,28.94,SSE,152,12.6,26.5,86,0.00,,FEW,0.00,WeatherDisplay:10.37,2013-05-29 21:51:00,
2013-05-29 16:56:00,82.9,77.9,28.94,ENE,68,32.4,32.4,85,0.00,,FEW,0.00,WeatherDisplay:10.37,2013-05-29 21:56:00,
2013-05-29 17:01:00,83.1,78.5,28.94,ENE,64,16.3,17.3,86,0.00,,FEW,0.00,WeatherDisplay:10.37,2013-05-29 22:01:00,
2013-05-29 17:06:00,83.3,78.3,28.94,SE,139,10.9,17.3,85,0.00,,FEW,0.00,WeatherDisplay:10.37,2013-05-29 22:06:00,
2013-05-29 17:11:00,82.8,77.8,28.94,South,175,12.7,20.7,85,0.00,,FEW,0.00,WeatherDisplay:10.37,2013-05-29 22:11:00,
2013-05-29 17:16:00,82.3,77.7,28.94,SSE,168,14.6,17.3,86,0.00,,FEW,0.00,WeatherDisplay:10.37,2013-05-29 22:16:00,
2013-05-29 17:21:00,82.1,77.5,28.94,ESE,117,13.0,20.7,86,0.00,,FEW,0.00,WeatherDisplay:10.37,2013-05-29 22:21:00,
2013-05-29 17:26:00,82.1,77.8,28.94,SW,232,10.2,15.0,87,0.00,,FEW,0.00,WeatherDisplay:10.37,2013-05-29 22:26:00,
2013-05-29 17:31:00,82.5,77.9,28.94,SE,124,9.0,15.0,86,0.00,,FEW,0.00,WeatherDisplay:10.37,2013-05-29 22:31:00,
2013-05-29 17:36:00,83.2,78.6,28.94,SSE,148,9.1,11.6,86,0.00,,FEW,0.00,WeatherDisplay:10.37,2013-05-29 22:36:00,
2013-05-29 17:41:00,83.0,78.0,28.94,SE,141,7.2,17.3,85,0.00,,FEW,0.00,WeatherDisplay:10.37,2013-05-29 22:41:00,
2013-05-29 17:46:00,82.7,78.1,28.94,SE,142,7.2,11.5,86,0.00,,FEW,0.00,WeatherDisplay:10.37,2013-05-29 22:46:00,
2013-05-29 17:51:00,82.6,78.0,28.94,ESE,118,6.7,11.5,86,0.00,,FEW,0.00,WeatherDisplay:10.37,2013-05-29 22:51:00,
2013-05-29 17:56:00,82.6,78.0,28.95,SSE,151,9.8,16.1,86,0.00,,FEW,0.00,WeatherDisplay:10.37,2013-05-29 22:56:00,
2013-05-29 18:01:00,82.5,77.9,28.94,South,186,9.7,16.1,86,0.00,,FEW,0.00,WeatherDisplay:10.37,2013-05-29 23:01:00,
2013-05-29 18:06:00,82.4,77.8,28.94,ESE,121,11.0,15.0,86,0.00,,FEW,0.00,WeatherDisplay:10.37,2013-05-29 23:06:00,
2013-05-29 18:11:00,82.2,77.6,28.94,SE,125,9.9,18.4,86,0.00,,FEW,0.00,WeatherDisplay:10.37,2013-05-29 23:11:00,
2013-05-29 18:16:00,82.1,77.8,28.94,East,92,9.8,20.0,87,0.00,,FEW,0.00,WeatherDisplay:10.37,2013-05-29 23:16:00,
2013-05-29 18:21:00,81.9,77.6,28.94,SE,144,8.8,18.4,87,0.00,,FEW,0.00,WeatherDisplay:10.37,2013-05-29 23:21:00,
2013-05-29 18:26:00,81.8,77.5,28.94,SE,138,12.3,18.4,87,0.00,,FEW,0.00,WeatherDisplay:10.37,2013-05-29 23:26:00,
2013-05-29 18:31:00,81.6,77.7,28.95,SSE,168,7.6,23.0,88,0.00,,FEW,0.00,WeatherDisplay:10.37,2013-05-29 23:31:00,
2013-05-29 18:36:00,81.5,77.6,28.95,SSE,154,6.4,6.9,88,0.00,,FEW,0.00,WeatherDisplay:10.37,2013-05-29 23:36:00,
2013-05-29 18:41:00,81.5,77.6,28.94,SE,126,8.2,12.7,88,0.00,,FEW,0.00,WeatherDisplay:10.37,2013-05-29 23:41:00,
2013-05-29 18:46:00,81.3,77.4,28.94,SE,139,6.6,12.7,88,0.00,,FEW,0.00,WeatherDisplay:10.37,2013-05-29 23:46:00,
2013-05-29 18:51:00,81.2,77.3,28.94,SSW,213,10.9,18.4,88,0.00,,FEW,0.00,WeatherDisplay:10.37,2013-05-29 23:51:00,
2013-05-29 18:56:00,81.1,77.5,28.94,SE,128,10.7,12.7,89,0.00,,FEW,0.00,WeatherDisplay:10.37,2013-05-29 23:56:00,
2013-05-29 19:01:00,81.0,77.4,28.94,SSE,155,4.9,20.7,89,0.00,,FEW,0.00,WeatherDisplay:10.37,2013-05-30 00:01:00,
2013-05-29 19:06:00,81.0,77.4,28.94,ESE,117,14.1,29.9,89,0.00,,FEW,0.00,WeatherDisplay:10.37,2013-05-30 00:06:00,
2013-05-29 19:11:00,81.0,77.4,28.94,SE,135,8.1,11.5,89,0.00,,FEW,0.00,WeatherDisplay:10.37,2013-05-30 00:11:00,
2013-05-29 19:16:00,80.9,77.4,28.94,ESE,117,9.2,13.8,89,0.00,,FEW,0.00,WeatherDisplay:10.37,2013-05-30 00:16:00,
2013-05-29 19:21:00,80.8,77.6,28.94,SSE,155,12.8,18.4,90,0.00,,FEW,0.00,WeatherDisplay:10.37,2013-05-30 00:21:00,
2013-05-29 19:26:00,80.7,77.2,28.95,SE,140,8.0,15.0,89,0.00,,FEW,0.00,WeatherDisplay:10.37,2013-05-30 00:26:00,
2013-05-29 19:31:00,80.6,77.4,28.95,SSE,150,7.9,16.1,90,0.00,,FEW,0.00,WeatherDisplay:10.37,2013-05-30 00:31:00,
2013-05-29 19:36:00,80.6,77.4,28.95,South,180,10.9,18.4,90,0.00,,FEW,0.00,WeatherDisplay:10.37,2013-05-30 00:36:00,
2013-05-29 19:41:00,80.5,77.3,28.95,East,95,7.6,13.8,90,0.00,,FEW,0.00,WeatherDisplay:10.37,2013-05-30 00:41:00,
2013-05-29 19:46:00,80.5,77.3,28.95,South,170,12.0,15.0,90,0.00,,FEW,0.00,WeatherDisplay:10.37,2013-05-30 00:46:00,
2013-05-29 19:51:00,80.4,77.2,28.95,ESE,118,8.6,13.8,90,0.00,,FEW,0.00,WeatherDisplay:10.37,2013-05-30 00:51:00,
2013-05-29 19:56:00,80.3,77.1,28.95,SE,127,6.3,15.0,90,0.00,,FEW,0.00,WeatherDisplay:10.37,2013-05-30 00:56:00,
2013-05-29 20:01:00,80.3,77.1,28.95,SE,124,7.6,19.6,90,0.00,,FEW,0.00,WeatherDisplay:10.37,2013-05-30 01:01:00,
2013-05-29 20:06:00,80.2,77.0,28.96,SSE,161,12.8,18.4,90,0.00,,FEW,0.00,WeatherDisplay:10.37,2013-05-30 01:06:00,
2013-05-29 20:11:00,80.2,77.0,28.96,SE,135,7.2,13.7,90,0.00,,FEW,0.00,WeatherDisplay:10.37,2013-05-30 01:11:00,
2013-05-29 20:16:00,80.2,77.0,28.96,ESE,114,12.9,16.1,90,0.00,,FEW,0.00,WeatherDisplay:10.37,2013-05-30 01:16:00,
2013-05-29 20:21:00,80.1,76.9,28.95,SSE,151,7.6,11.5,90,0.00,,FEW,0.00,WeatherDisplay:10.37,2013-05-30 01:21:00,
2013-05-29 20:26:00,80.1,77.2,28.95,SE,132,7.4,10.4,91,0.00,,FEW,0.00,WeatherDisplay:10.37,2013-05-30 01:26:00,
2013-05-29 20:31:00,80.0,77.1,28.96,East,83,7.4,12.7,91,0.00,,FEW,0.00,WeatherDisplay:10.37,2013-05-30 01:31:00,
2013-05-29 20:36:00,79.9,76.7,28.96,SSE,151,7.5,10.4,90,0.00,,FEW,0.00,WeatherDisplay:10.37,2013-05-30 01:36:00,
2013-05-29 20:41:00,79.9,76.7,28.96,East,94,9.8,15.0,90,0.00,,FEW,0.00,WeatherDisplay:10.37,2013-05-30 01:41:00,
2013-05-29 20:46:00,79.9,76.7,28.97,SSE,154,8.9,11.5,90,0.00,,FEW,0.00,WeatherDisplay:10.37,2013-05-30 01:46:00,
2013-05-29 20:51:00,79.9,77.0,28.96,ESE,122,8.4,12.7,91,0.00,,FEW,0.00,WeatherDisplay:10.37,2013-05-30 01:51:00,
2013-05-29 20:56:00,79.9,76.7,28.96,SE,146,9.2,13.8,90,0.00,,FEW,0.00,WeatherDisplay:10.37,2013-05-30 01:56:00,
2013-05-29 21:01:00,79.9,77.0,28.96,SSE,158,11.7,16.1,91,0.00,,FEW,0.00,WeatherDisplay:10.37,2013-05-30 02:01:00,
2013-05-29 21:06:00,79.8,76.9,28.96,ESE,114,12.1,13.8,91,0.00,,FEW,0.00,WeatherDisplay:10.37,2013-05-30 02:06:00,
2013-05-29 21:11:00,79.8,76.9,28.96,SSE,154,10.0,10.4,91,0.00,,FEW,0.00,WeatherDisplay:10.37,2013-05-30 02:11:00,
2013-05-29 21:16:00,79.8,76.9,28.95,SE,140,8.1,11.5,91,0.00,,FEW,0.00,WeatherDisplay:10.37,2013-05-30 02:16:00,
2013-05-29 21:21:00,79.7,76.8,28.96,SE,125,7.9,10.4,91,0.00,,FEW,0.00,WeatherDisplay:10.37,2013-05-30 02:21:00,
2013-05-29 21:26:00,79.7,76.8,28.96,ENE,70,14.4,24.4,91,0.00,,FEW,0.00,WeatherDisplay:10.37,2013-05-30 02:26:00,
2013-05-29 21:31:00,79.7,76.8,28.97,SSE,152,9.4,14.7,91,0.00,,FEW,0.00,WeatherDisplay:10.37,2013-05-30 02:31:00,
2013-05-29 21:36:00,79.7,76.8,28.97,East,90,7.9,9.4,91,0.00,,FEW,0.00,WeatherDisplay:10.37,2013-05-30 02:36:00,
2013-05-29 21:41:00,79.7,76.8,28.97,SE,132,6.6,12.7,91,0.00,,FEW,0.00,WeatherDisplay:10.37,2013-05-30 02:41:00,
2013-05-29 21:46:00,79.7,76.8,28.97,SSE,147,11.4,18.4,91,0.00,,FEW,0.00,WeatherDisplay:10.37,2013-05-30 02:46:00,
2013-05-29 21:51:00,79.8,76.9,28.97,ESE,111,9.7,15.0,91,0.00,,FEW,0.00,WeatherDisplay:10.37,2013-05-30 02:51:00,
2013-05-29 21:56:00,79.8,76.9,28.97,SE,128,5.3,8.1,91,0.00,,FEW,0.00,WeatherDisplay:10.37,2013-05-30 02:56:00,
2013-05-29 22:01:00,79.8,76.9,28.97,SE,144,9.4,13.8,91,0.00,,FEW,0.00,WeatherDisplay:10.37,2013-05-30 03:01:00,
2013-05-29 22:06:00,79.8,76.9,28.97,SE,127,7.1,11.6,91,0.00,,FEW,0.00,WeatherDisplay:10.37,2013-05-30 03:06:00,
2013-05-29 22:11:00,79.8,76.9,28.97,East,98,8.9,9.2,91,0.00,,FEW,0.00,WeatherDisplay:10.37,2013-05-30 03:11:00,
2013-05-29 22:16:00,79.8,76.9,28.97,South,178,8.6,12.7,91,0.00,,FEW,0.00,WeatherDisplay:10.37,2013-05-30 03:16:00,
2013-05-29 22:21:00,79.8,76.9,28.97,SSE,164,14.5,23.0,91,0.00,,FEW,0.00,WeatherDisplay:10.37,2013-05-30 03:21:00,
2013-05-29 22:26:00,79.7,76.8,28.97,East,99,7.4,15.0,91,0.00,,FEW,0.00,WeatherDisplay:10.37,2013-05-30 03:26:00,
2013-05-29 22:31:00,79.8,76.9,28.97,SE,142,10.0,11.5,91,0.00,,FEW,0.00,WeatherDisplay:10.37,2013-05-30 03:31:00,
2013-05-29 22:36:00,79.8,76.9,28.98,SE,135,11.5,16.1,91,0.00,,FEW,0.00,WeatherDisplay:10.37,2013-05-30 03:36:00,
2013-05-29 22:41:00,79.8,76.9,28.98,SE,138,8.6,12.7,91,0.00,,FEW,0.00,WeatherDisplay:10.37,2013-05-30 03:41:00,
2013-05-29 22:46:00,79.8,76.9,28.98,SE,141,7.9,11.5,91,0.00,,FEW,0.00,WeatherDisplay:10.37,2013-05-30 03:46:00,
2013-05-29 22:51:00,79.8,76.9,28.98,SE,143,6.3,12.7,91,0.00,,FEW,0.00,WeatherDisplay:10.37,2013-05-30 03:51:00,
2013-05-29 22:56:00,79.8,76.9,28.98,SSE,151,11.0,15.0,91,0.00,,FEW,0.00,WeatherDisplay:10.37,2013-05-30 03:56:00,
2013-05-29 23:01:00,79.8,76.9,28.99,South,184,9.6,18.4,91,0.00,,FEW,0.00,WeatherDisplay:10.37,2013-05-30 04:01:00,
2013-05-29 23:06:00,79.8,76.9,28.99,ESE,117,10.7,16.1,91,0.00,,FEW,0.00,WeatherDisplay:10.37,2013-05-30 04:06:00,
2013-05-29 23:11:00,79.8,76.6,28.99,South,173,7.5,10.4,90,0.00,,FEW,0.00,WeatherDisplay:10.37,2013-05-30 04:11:00,
2013-05-29 23:16:00,79.8,76.6,28.99,SE,140,9.0,12.7,90,0.00,,FEW,0.00,WeatherDisplay:10.37,2013-05-30 04:16:00,
2013-05-29 23:21:00,79.8,76.6,28.99,ESE,111,9.0,15.0,90,0.00,,FEW,0.00,WeatherDisplay:10.37,2013-05-30 04:21:00,
2013-05-29 23:26:00,79.8,76.6,29.00,SE,130,13.9,18.4,90,0.00,,FEW,0.00,WeatherDisplay:10.37,2013-05-30 04:26:00,
2013-05-29 23:31:00,79.8,76.6,29.00,South,189,12.9,12.9,90,0.00,,FEW,0.00,WeatherDisplay:10.37,2013-05-30 04:31:00,
2013-05-29 23:36:00,79.9,76.7,29.00,ESE,115,7.9,11.6,90,0.00,,FEW,0.00,WeatherDisplay:10.37,2013-05-30 04:36:00,
2013-05-29 23:41:00,79.8,76.6,29.00,East,87,10.2,17.3,90,0.00,,FEW,0.00,WeatherDisplay:10.37,2013-05-30 04:41:00,
2013-05-29 23:46:00,79.8,76.6,29.00,SSE,154,9.7,14.7,90,0.00,,FEW,0.00,WeatherDisplay:10.37,2013-05-30 04:46:00,
2013-05-29 23:51:00,79.9,76.7,29.00,ESE,106,7.1,10.5,90,0.00,,FEW,0.00,WeatherDisplay:10.37,2013-05-30 04:51:00,
2013-05-29 23:56:00,79.9,76.7,29.00,ESE,110,7.3,11.5,90,0.00,,FEW,0.00,WeatherDisplay:10.37,2013-05-30 04:56:00,